Time;durP1;ratioP1;P1;durP2;ratioP2;P2;SDS_P1;SDS_P2;PMS_P1;PMS_P2;Temp;Humidity;BMP_temperature;BMP_pressure;BME280_temperature;BME280_humidity;BME280_pressure;Samples;Min_cycle;Max_cycle;Signal;HPM_P1;HPM_P2
2023/01/01 00:00:22;;;;;;;28.90;10.37;;;;;;;-145.18;100.00;47414.47;6123794;23;20014;-73
2023/01/01 00:02:47;;;;;;;20.23;10.30;;;;;;;-145.18;100.00;47414.47;6123472;23;20013;-73
2023/01/01 00:05:12;;;;;;;18.97;9.93;;;;;;;-145.18;100.00;47420.31;6123366;23;20539;-73
2023/01/01 00:07:38;;;;;;;19.57;8.83;;;;;;;-145.18;100.00;47437.91;6122906;23;20086;-73
2023/01/01 00:12:47;;;;;;;18.43;8.07;;;;;;;-145.18;100.00;47412.50;6123573;23;20081;-73
2023/01/01 00:15:13;;;;;;;22.80;7.93;;;;;;;-145.18;100.00;47426.19;6122979;23;20010;-73
2023/01/01 00:17:38;;;;;;;20.83;8.10;;;;;;;-145.18;100.00;47426.19;6122540;23;20016;-73
2023/01/01 00:20:04;;;;;;;16.17;7.83;;;;;;;-145.18;100.00;47430.09;6122788;23;20006;-73
2023/01/01 00:22:30;;;;;;;18.57;7.13;;;;;;;-145.18;100.00;47424.22;6123176;23;20006;-73
2023/01/01 00:24:55;;;;;;;21.33;6.83;;;;;;;-145.18;100.00;47412.50;6123111;23;20021;-73
2023/01/01 00:27:20;;;;;;;12.57;5.77;;;;;;;-145.18;100.00;47424.22;6122906;23;20010;-73
2023/01/01 00:29:46;;;;;;;21.53;6.27;;;;;;;-145.18;100.00;47420.31;6123052;23;20013;-73
2023/01/01 00:32:11;;;;;;;18.13;6.13;;;;;;;-145.18;100.00;47414.47;6122582;23;20013;-73
2023/01/01 00:34:37;;;;;;;14.97;5.53;;;;;;;-145.18;100.00;47416.41;6123326;23;20010;-73
2023/01/01 00:37:02;;;;;;;14.83;5.87;;;;;;;-145.18;100.00;47410.56;6122611;23;20016;-73
2023/01/01 00:39:28;;;;;;;15.90;4.50;;;;;;;-145.18;100.00;47408.59;6123023;23;20439;-73
2023/01/01 00:41:53;;;;;;;16.83;5.20;;;;;;;-145.18;100.00;47416.41;6122658;23;20014;-74
2023/01/01 00:44:18;;;;;;;16.00;4.60;;;;;;;-145.18;100.00;47416.41;6123059;23;20018;-73
2023/01/01 00:46:44;;;;;;;11.67;3.63;;;;;;;-145.18;100.00;47422.28;6123379;23;20017;-73
2023/01/01 00:49:09;;;;;;;13.73;3.37;;;;;;;-145.18;100.00;47420.31;6123147;23;20140;-73
2023/01/01 00:51:34;;;;;;;16.30;4.20;;;;;;;-145.18;100.00;47408.59;6122855;23;20025;-72
2023/01/01 00:54:00;;;;;;;18.97;3.57;;;;;;;-145.18;100.00;47412.50;6097124;23;20006;-73
2023/01/01 00:56:25;;;;;;;17.97;4.37;;;;;;;-145.18;100.00;47418.38;6122549;23;20014;-73
2023/01/01 00:58:51;;;;;;;11.30;3.97;;;;;;;-145.18;100.00;47435.94;6123167;23;20060;-73
2023/01/01 01:01:16;;;;;;;16.13;4.07;;;;;;;-145.18;100.00;47430.09;6123009;23;20401;-73
2023/01/01 01:03:41;;;;;;;10.20;3.17;;;;;;;-145.18;100.00;47428.13;6122772;23;20587;-73
2023/01/01 01:06:08;;;;;;;11.23;3.10;;;;;;;-145.18;100.00;47412.50;6122449;23;20014;-73
2023/01/01 01:08:36;;;;;;;21.40;4.90;;;;;;;-145.18;100.00;47439.84;6123375;23;20032;-73
2023/01/01 01:11:16;;;;;;;10.60;3.70;;;;;;;-145.18;100.00;47453.53;6122356;23;20017;-74
2023/01/01 01:13:43;;;;;;;11.97;3.00;;;;;;;-145.18;100.00;47471.13;6122998;23;20017;-74
2023/01/01 01:16:20;;;;;;;11.33;3.60;;;;;;;-145.18;100.00;47502.38;6122463;23;20006;-73
2023/01/01 01:18:49;;;;;;;11.63;3.87;;;;;;;-145.18;100.00;47488.69;6123079;23;20088;-73
2023/01/01 01:21:16;;;;;;;10.13;2.83;;;;;;;-145.18;100.00;47492.59;6122566;23;20010;-73
2023/01/01 01:23:42;;;;;;;12.40;3.57;;;;;;;-145.18;100.00;47519.97;6122849;23;20049;-73
2023/01/01 01:26:13;;;;;;;7.73;2.67;;;;;;;-145.18;100.00;47506.28;6122497;23;20444;-73
2023/01/01 01:28:39;;;;;;;11.47;4.00;;;;;;;-145.18;100.00;47519.97;6123359;23;20026;-73
2023/01/01 01:31:05;;;;;;;16.87;3.60;;;;;;;-145.18;100.00;47543.41;6122190;23;20041;-73
2023/01/01 01:33:30;;;;;;;10.67;2.93;;;;;;;-145.18;100.00;47498.47;6123077;23;20088;-73
2023/01/01 01:35:56;;;;;;;11.30;2.90;;;;;;;-145.18;100.00;47512.16;6122721;23;20002;-74
2023/01/01 01:38:21;;;;;;;11.33;3.00;;;;;;;-145.18;100.00;47494.56;6122784;23;20015;-74
2023/01/01 01:40:47;;;;;;;14.73;3.00;;;;;;;-145.18;100.00;47494.56;6123036;23;20335;-73
2023/01/01 01:43:41;;;;;;;12.03;2.60;;;;;;;-145.18;100.00;47459.41;6122420;23;20005;-73
2023/01/01 01:46:30;;;;;;;10.63;3.10;;;;;;;-145.18;100.00;47484.78;6103153;23;20116;-74
2023/01/01 01:49:01;;;;;;;12.30;3.07;;;;;;;-145.18;100.00;47486.75;6122711;23;20010;-73
2023/01/01 01:51:32;;;;;;;12.90;2.83;;;;;;;-145.18;100.00;47475.03;6122575;23;20018;-73
2023/01/01 01:54:03;;;;;;;12.53;3.17;;;;;;;-145.18;100.00;47500.41;6122255;23;20555;-74
2023/01/01 01:56:44;;;;;;;12.77;4.03;;;;;;;-145.18;100.00;47518.00;6122364;23;20001;-74
2023/01/01 01:59:09;;;;;;;7.13;2.17;;;;;;;-145.18;100.00;47516.06;6122730;23;20017;-74
2023/01/01 02:01:35;;;;;;;10.13;2.60;;;;;;;-145.18;100.00;47516.06;6122165;23;20010;-73
2023/01/01 02:04:02;;;;;;;13.30;3.23;;;;;;;-145.18;100.00;47549.25;6096664;23;20044;-73
2023/01/01 02:06:30;;;;;;;14.40;3.07;;;;;;;-145.18;100.00;47543.41;6122620;23;20029;-73
2023/01/01 02:09:00;;;;;;;12.97;2.47;;;;;;;-145.18;100.00;47543.41;6122471;23;20432;-73
2023/01/01 02:11:26;;;;;;;10.07;2.40;;;;;;;-145.18;100.00;47519.97;6122171;23;20468;-73
2023/01/01 02:13:54;;;;;;;8.03;2.33;;;;;;;-145.18;100.00;47492.59;6122675;23;20010;-73
2023/01/01 02:16:43;;;;;;;9.97;2.37;;;;;;;-145.18;100.00;47488.69;6121655;23;20084;-73
2023/01/01 02:19:50;;;;;;;8.67;2.70;;;;;;;-145.18;100.00;47463.31;6121796;23;20380;-73
2023/01/01 02:23:07;;;;;;;11.07;2.50;;;;;;;-145.18;100.00;47455.47;6122000;23;20025;-73
2023/01/01 02:25:44;;;;;;;9.43;2.00;;;;;;;-145.18;100.00;47445.72;6073647;23;20021;-73
2023/01/01 02:28:24;;;;;;;17.23;2.67;;;;;;;-145.18;100.00;47451.56;6122300;23;20332;-73
2023/01/01 02:30:51;;;;;;;13.57;3.40;;;;;;;-145.18;100.00;47435.94;6097000;23;20042;-73
2023/01/01 02:33:21;;;;;;;9.73;1.90;;;;;;;-145.18;100.00;47437.91;6124140;23;20085;-73
2023/01/01 02:35:51;;;;;;;8.90;2.20;;;;;;;-145.18;100.00;47430.09;6124369;23;20025;-73
2023/01/01 02:38:29;;;;;;;10.70;2.77;;;;;;;-145.18;100.00;47432.03;6124305;23;20092;-73
2023/01/01 02:41:24;;;;;;;7.93;2.03;;;;;;;-145.18;100.00;47420.31;6124919;23;20009;-73
2023/01/01 02:43:50;;;;;;;10.70;1.90;;;;;;;-145.18;100.00;47416.41;6114314;23;20387;-73
2023/01/01 02:46:16;;;;;;;8.90;2.20;;;;;;;-145.18;100.00;47432.03;6124140;23;20361;-73
2023/01/01 02:48:47;;;;;;;6.90;2.00;;;;;;;-145.18;100.00;47418.38;6124319;23;20013;-73
2023/01/01 02:51:12;;;;;;;11.63;2.57;;;;;;;-145.18;100.00;47410.56;6124106;23;20032;-73
2023/01/01 02:53:44;;;;;;;5.90;1.87;;;;;;;-145.18;100.00;47418.38;6124094;23;20033;-73
2023/01/01 02:56:21;;;;;;;10.57;2.13;;;;;;;-145.18;100.00;47422.28;6124110;23;20396;-74
2023/01/01 03:01:52;;;;;;;7.78;1.80;;;;;;;-145.18;100.00;47416.41;6128633;23;20154;-74
2023/01/01 03:04:23;;;;;;;11.07;2.03;;;;;;;-145.18;100.00;47410.56;6181623;23;20013;-74
2023/01/01 03:07:11;;;;;;;6.10;1.77;;;;;;;-145.18;100.00;47406.63;6183206;23;20013;-74
2023/01/01 03:09:54;;;;;;;8.10;1.90;;;;;;;-145.18;100.00;47416.41;6183016;23;20005;-74
2023/01/01 03:12:38;;;;;;;9.67;2.20;;;;;;;-145.18;100.00;47420.31;6156964;23;20023;-74
2023/01/01 03:15:23;;;;;;;6.63;2.00;;;;;;;-145.18;100.00;47426.19;6183694;23;20045;-74
2023/01/01 03:18:16;;;;;;;12.97;2.87;;;;;;;-145.18;100.00;47420.31;6182987;23;20012;-74
2023/01/01 03:20:46;;;;;;;6.80;1.90;;;;;;;-145.18;100.00;47426.19;6182890;23;20013;-74
2023/01/01 03:23:17;;;;;;;10.90;2.13;;;;;;;-145.18;100.00;47422.28;6183429;23;20005;-74
2023/01/01 03:25:47;;;;;;;7.60;1.83;;;;;;;-145.18;100.00;47406.63;6183464;23;20012;-74
2023/01/01 03:28:22;;;;;;;6.40;1.77;;;;;;;-145.18;100.00;47412.50;6183178;23;20001;-75
2023/01/01 03:30:51;;;;;;;12.17;1.93;;;;;;;-145.18;100.00;47424.22;6183131;23;20081;-74
2023/01/01 03:33:22;;;;;;;13.47;2.00;;;;;;;-145.18;100.00;47414.47;6183503;23;20318;-74
2023/01/01 03:35:59;;;;;;;7.53;2.00;;;;;;;-145.18;100.00;47426.19;6183047;23;20071;-74
2023/01/01 03:38:32;;;;;;;6.60;1.67;;;;;;;-145.18;100.00;47422.28;6182970;23;20020;-74
2023/01/01 03:41:06;;;;;;;9.63;2.00;;;;;;;-145.18;100.00;47430.09;6183560;23;19997;-73
2023/01/01 03:43:49;;;;;;;11.43;2.00;;;;;;;-145.18;100.00;47422.28;6182360;23;20009;-74
2023/01/01 03:46:18;;;;;;;7.77;2.40;;;;;;;-145.18;100.00;47428.13;6183297;23;20015;-74
2023/01/01 03:48:56;;;;;;;8.47;2.67;;;;;;;-145.18;100.00;47426.19;6182814;23;20000;-74
2023/01/01 03:51:49;;;;;;;13.17;2.00;;;;;;;-145.18;100.00;47422.28;6183408;23;20039;-74
2023/01/01 03:54:21;;;;;;;8.40;2.13;;;;;;;-145.18;100.00;47437.91;6157016;23;20009;-74
2023/01/01 03:56:59;;;;;;;6.07;1.63;;;;;;;-145.18;100.00;47439.84;6182592;23;20001;-74
2023/01/01 03:59:55;;;;;;;8.37;2.00;;;;;;;-145.18;100.00;47430.09;6183265;23;20013;-75
2023/01/01 04:02:27;;;;;;;10.27;1.57;;;;;;;-145.18;100.00;47432.03;6183026;23;20504;-75
2023/01/01 04:04:52;;;;;;;16.83;2.10;;;;;;;-145.18;100.00;47437.91;6183170;23;20005;-74
2023/01/01 04:07:19;;;;;;;7.13;2.10;;;;;;;-145.18;100.00;47430.09;6182790;23;20012;-74
2023/01/01 04:09:48;;;;;;;8.83;2.30;;;;;;;-145.18;100.00;47414.47;6183058;23;20446;-74
2023/01/01 04:12:16;;;;;;;10.77;1.90;;;;;;;-145.18;100.00;47426.19;6182984;23;20017;-74
2023/01/01 04:14:42;;;;;;;9.67;2.00;;;;;;;-145.18;100.00;47434.00;6183015;23;20010;-75
2023/01/01 04:17:09;;;;;;;9.20;2.17;;;;;;;-145.18;100.00;47451.56;6182779;23;20009;-75
2023/01/01 04:19:34;;;;;;;17.20;3.53;;;;;;;-145.18;100.00;47476.97;6182792;23;20027;-75
2023/01/01 04:22:00;;;;;;;9.70;1.97;;;;;;;-145.18;100.00;47512.16;6182859;23;20442;-74
2023/01/01 04:24:26;;;;;;;6.33;2.07;;;;;;;-145.18;100.00;46844.00;6183398;23;20427;-74
2023/01/01 04:26:52;;;;;;;12.87;2.30;;;;;;;-145.18;100.00;46791.28;6182286;23;20009;-75
2023/01/01 04:29:18;;;;;;;8.43;1.87;;;;;;;-145.18;100.00;46765.88;6183055;23;20006;-75
2023/01/01 04:31:44;;;;;;;10.10;2.50;;;;;;;-145.18;100.00;46738.53;6182545;23;20013;-75
2023/01/01 04:34:09;;;;;;;10.57;2.07;;;;;;;-145.18;100.00;46715.09;6183116;23;20055;-75
2023/01/01 04:36:35;;;;;;;14.50;2.37;;;;;;;-145.18;100.00;46711.19;6182624;23;20013;-75
2023/01/01 04:39:00;;;;;;;7.10;2.10;;;;;;;-145.18;100.00;46707.28;6182989;23;20070;-75
2023/01/01 04:41:26;;;;;;;10.77;2.30;;;;;;;-145.18;100.00;46719.00;6183152;23;20040;-75
2023/01/01 04:43:51;;;;;;;9.63;2.00;;;;;;;-145.18;100.00;46736.56;6182279;23;20016;-75
2023/01/01 04:46:18;;;;;;;10.77;2.20;;;;;;;-145.18;100.00;46746.34;6183086;23;20367;-75
2023/01/01 04:48:44;;;;;;;7.30;1.83;;;;;;;-145.18;100.00;46740.47;6182574;23;20088;-75
2023/01/01 04:51:11;;;;;;;11.47;1.97;;;;;;;-145.18;100.00;46728.75;6182863;23;20036;-75
2023/01/01 04:53:37;;;;;;;11.40;2.27;;;;;;;-145.18;100.00;46738.53;6181897;23;20009;-75
2023/01/01 04:56:22;;;;;;;12.10;2.63;;;;;;;-145.18;100.00;46754.16;6182918;23;20341;-75
2023/01/01 04:58:48;;;;;;;15.63;1.93;;;;;;;-145.18;100.00;46789.31;6182173;23;20001;-74
2023/01/01 05:01:21;;;;;;;7.70;2.43;;;;;;;-145.18;100.00;46816.66;6182698;23;19997;-75
2023/01/01 05:03:48;;;;;;;7.00;1.27;;;;;;;-145.18;100.00;46879.19;6181835;23;20017;-75
2023/01/01 05:06:14;;;;;;;3.63;0.90;;;;;;;-145.18;100.00;46890.91;6156568;23;20013;-74
2023/01/01 05:08:42;;;;;;;9.67;2.60;;;;;;;-145.18;100.00;46865.50;6182105;23;20009;-75
2023/01/01 05:11:14;;;;;;;5.90;1.30;;;;;;;-145.18;100.00;46890.91;6182597;23;20005;-75
2023/01/01 05:13:42;;;;;;;5.33;1.60;;;;;;;-145.18;100.00;46904.56;6182267;23;20059;-74
2023/01/01 05:16:11;;;;;;;17.53;1.80;;;;;;;-145.18;100.00;46945.59;6182484;23;20386;-75
2023/01/01 05:18:37;;;;;;;6.13;1.20;;;;;;;-145.18;100.00;47137.03;6182169;23;20005;-75
2023/01/01 05:21:06;;;;;;;4.37;1.00;;;;;;;-145.18;100.00;47555.13;6182739;23;20015;-75
2023/01/01 05:23:32;;;;;;;11.00;1.13;;;;;;;-145.18;100.00;47559.03;6182152;23;20366;-74
2023/01/01 05:25:58;;;;;;;5.63;1.10;;;;;;;-145.18;100.00;47543.41;6182747;23;20001;-75
2023/01/01 05:28:24;;;;;;;2.47;0.70;;;;;;;-145.18;100.00;47523.88;6182020;23;20001;-75
2023/01/01 05:30:51;;;;;;;8.93;1.40;;;;;;;-145.18;100.00;47494.56;6182175;23;20335;-75
2023/01/01 05:33:16;;;;;;;9.67;0.90;;;;;;;-145.18;100.00;47490.66;6182461;23;20028;-75
2023/01/01 05:35:41;;;;;;;4.70;1.13;;;;;;;-145.18;100.00;47465.25;6182040;23;20005;-75
2023/01/01 05:38:07;;;;;;;5.43;0.70;;;;;;;-145.18;100.00;47476.97;6182004;23;20412;-75
2023/01/01 05:40:32;;;;;;;5.50;0.90;;;;;;;-145.18;100.00;47484.78;6182190;23;20012;-75
2023/01/01 05:42:57;;;;;;;4.13;0.70;;;;;;;-145.18;100.00;47486.75;6182116;23;20040;-75
2023/01/01 05:45:23;;;;;;;4.07;0.77;;;;;;;-145.18;100.00;47496.50;6182413;23;20012;-75
2023/01/01 05:47:48;;;;;;;3.40;1.00;;;;;;;-145.18;100.00;47516.06;6181719;23;20012;-75
2023/01/01 05:50:14;;;;;;;5.17;0.80;;;;;;;-145.18;100.00;47512.16;6182362;23;20009;-75
2023/01/01 05:52:39;;;;;;;2.70;0.70;;;;;;;-145.18;100.00;47518.00;6181953;23;20433;-76
2023/01/01 05:55:05;;;;;;;4.47;0.67;;;;;;;-145.18;100.00;47533.63;6182133;23;20017;-75
2023/01/01 05:57:30;;;;;;;7.43;0.97;;;;;;;-145.18;100.00;47539.50;6181621;23;20162;-75
2023/01/01 05:59:56;;;;;;;4.70;0.70;;;;;;;-145.18;100.00;47531.69;6182365;23;20100;-75
2023/01/01 06:02:21;;;;;;;4.73;1.27;;;;;;;-145.18;100.00;47547.31;6181682;23;20472;-75
2023/01/01 06:04:47;;;;;;;8.03;0.87;;;;;;;-145.18;100.00;47551.22;6180404;23;20005;-75
2023/01/01 06:07:12;;;;;;;3.37;0.80;;;;;;;-145.18;100.00;47561.00;6180034;23;20009;-75
2023/01/01 06:09:37;;;;;;;3.37;0.70;;;;;;;-145.18;100.00;47527.78;6181042;23;20080;-75
2023/01/01 06:12:03;;;;;;;11.47;1.00;;;;;;;-145.18;100.00;47543.41;6181742;23;20020;-75
2023/01/01 06:14:28;;;;;;;5.37;1.20;;;;;;;-145.18;100.00;47529.72;6180458;23;20013;-75
2023/01/01 06:16:54;;;;;;;8.17;1.93;;;;;;;-145.18;100.00;47539.50;6179829;23;20015;-75
2023/01/01 06:19:19;;;;;;;6.57;1.00;;;;;;;-145.18;100.00;47541.44;6179873;23;20435;-75
2023/01/01 06:21:45;;;;;;;6.77;1.07;;;;;;;-145.18;100.00;47519.97;6180173;23;20017;-75
2023/01/01 06:24:10;;;;;;;6.37;1.00;;;;;;;-145.18;100.00;47529.72;6178610;23;20016;-75
2023/01/01 06:26:35;;;;;;;5.73;1.00;;;;;;;-145.18;100.00;47535.59;6181727;23;20075;-75
2023/01/01 06:29:01;;;;;;;3.60;0.60;;;;;;;-145.18;100.00;47537.53;6181424;23;20431;-76
2023/01/01 06:31:28;;;;;;;4.03;1.10;;;;;;;-145.18;100.00;47523.88;6181682;23;20041;-75
2023/01/01 06:33:53;;;;;;;5.03;0.80;;;;;;;-145.18;100.00;47541.44;6181318;23;20060;-75
2023/01/01 06:36:21;;;;;;;6.60;1.10;;;;;;;-145.18;100.00;47527.78;6155249;23;20373;-76
2023/01/01 06:38:49;;;;;;;5.03;0.93;;;;;;;-145.18;100.00;47551.22;6181179;23;20005;-75
2023/01/01 06:41:26;;;;;;;4.60;0.70;;;;;;;-145.18;100.00;47568.81;6181663;23;20461;-76
2023/01/01 06:43:54;;;;;;;6.37;1.00;;;;;;;-145.18;100.00;47584.44;6181398;23;20392;-76
2023/01/01 06:46:29;;;;;;;7.73;0.90;;;;;;;-145.18;100.00;47580.53;6181637;23;20407;-75
2023/01/01 06:48:57;;;;;;;12.20;0.90;;;;;;;-145.18;100.00;47576.63;6180757;23;20008;-75
2023/01/01 06:51:27;;;;;;;5.67;0.93;;;;;;;-145.18;100.00;47596.16;6155204;23;20076;-75
2023/01/01 06:53:53;;;;;;;12.93;1.00;;;;;;;-145.18;100.00;47490.66;6181332;23;20036;-75
2023/01/01 06:56:19;;;;;;;6.37;0.90;;;;;;;-145.18;100.00;47377.34;6128027;23;20088;-75
2023/01/01 06:58:44;;;;;;;7.50;1.20;;;;;;;-145.18;100.00;47133.13;6181131;23;20005;-75
2023/01/01 07:01:19;;;;;;;6.20;1.40;;;;;;;-145.18;100.00;47041.31;6155171;23;20008;-75
2023/01/01 07:03:52;;;;;;;12.37;1.53;;;;;;;-145.18;100.00;46990.53;6180882;23;20013;-74
2023/01/01 07:06:19;;;;;;;3.70;0.70;;;;;;;-145.18;100.00;46994.44;6182132;23;20079;-74
2023/01/01 07:08:44;;;;;;;4.47;0.60;;;;;;;-145.18;100.00;46976.84;6180182;23;20020;-74
2023/01/01 07:11:09;;;;;;;5.57;0.70;;;;;;;-145.18;100.00;47043.28;6181485;23;20037;-74
2023/01/01 07:13:35;;;;;;;4.90;0.83;;;;;;;-145.18;100.00;47031.53;6154409;23;20017;-74
2023/01/01 07:16:01;;;;;;;9.50;1.60;;;;;;;-145.18;100.00;47033.50;6181887;23;20012;-74
2023/01/01 07:18:26;;;;;;;4.43;0.87;;;;;;;-145.18;100.00;47010.06;6183404;23;20009;-74
2023/01/01 07:20:54;;;;;;;9.67;1.20;;;;;;;-145.18;100.00;47012.00;6183382;23;20033;-74
2023/01/01 07:23:19;;;;;;;4.77;0.90;;;;;;;-145.18;100.00;47012.00;6183344;23;20068;-74
2023/01/01 07:25:48;;;;;;;3.73;0.70;;;;;;;-145.18;100.00;47004.19;6182826;23;20092;-74
2023/01/01 07:28:13;;;;;;;4.87;1.20;;;;;;;-145.18;100.00;47027.63;6182977;23;20009;-74
2023/01/01 07:30:38;;;;;;;7.53;1.27;;;;;;;-145.18;100.00;46972.94;6183376;23;20092;-74
2023/01/01 07:33:04;;;;;;;8.03;1.30;;;;;;;-145.18;100.00;46935.81;6180246;23;20005;-74
2023/01/01 07:35:29;;;;;;;8.97;1.00;;;;;;;-145.18;100.00;46924.09;6173890;23;20001;-74
2023/01/01 07:37:54;;;;;;;9.20;1.47;;;;;;;-145.18;100.00;46902.63;6181223;23;20013;-74
2023/01/01 07:40:20;;;;;;;11.33;1.30;;;;;;;-145.18;100.00;46898.72;6182374;23;20012;-74
2023/01/01 07:42:45;;;;;;;6.73;1.00;;;;;;;-145.18;100.00;46879.19;6182190;23;20079;-74
2023/01/01 07:45:12;;;;;;;6.43;1.10;;;;;;;-145.18;100.00;46896.75;6181642;23;20064;-74
2023/01/01 07:47:37;;;;;;;10.20;1.17;;;;;;;-145.18;100.00;46906.53;6180729;23;20076;-74
2023/01/01 07:50:03;;;;;;;5.30;1.10;;;;;;;-145.18;100.00;46887.00;6181004;23;20055;-74
2023/01/01 07:52:29;;;;;;;8.60;1.23;;;;;;;-145.18;100.00;46904.56;6175897;23;20044;-74
2023/01/01 07:54:54;;;;;;;7.27;1.00;;;;;;;-145.18;100.00;46904.56;6181643;23;20438;-74
2023/01/01 07:57:19;;;;;;;7.17;0.90;;;;;;;-145.18;100.00;46877.22;6182542;23;20032;-74
2023/01/01 07:59:45;;;;;;;5.30;1.13;;;;;;;-145.18;100.00;46867.44;6155995;23;20067;-74
2023/01/01 08:02:13;;;;;;;9.57;1.13;;;;;;;-145.18;100.00;46863.53;6181809;23;20021;-74
2023/01/01 08:04:38;;;;;;;8.67;1.33;;;;;;;-145.18;100.00;46849.88;6182315;23;20583;-75
2023/01/01 08:07:04;;;;;;;7.57;1.10;;;;;;;-145.18;100.00;46844.00;6182457;23;20009;-75
2023/01/01 08:09:30;;;;;;;12.10;1.37;;;;;;;-145.18;100.00;46832.28;6182243;23;20009;-74
2023/01/01 08:11:57;;;;;;;4.60;1.07;;;;;;;-145.18;100.00;46832.28;6155970;23;20513;-75
2023/01/01 08:14:23;;;;;;;6.80;1.67;;;;;;;-145.18;100.00;46816.66;6177477;23;20008;-74
2023/01/01 08:16:48;;;;;;;9.47;1.40;;;;;;;-145.18;100.00;46822.53;6155644;23;20013;-75
2023/01/01 08:19:14;;;;;;;6.13;1.23;;;;;;;-145.18;100.00;46820.56;6181807;23;20015;-75
2023/01/01 08:21:39;;;;;;;11.50;1.50;;;;;;;-145.18;100.00;46799.09;6181738;23;20011;-75
2023/01/01 08:24:05;;;;;;;9.60;1.47;;;;;;;-145.18;100.00;46814.72;6181911;23;20013;-75
2023/01/01 08:26:32;;;;;;;5.93;1.27;;;;;;;-145.18;100.00;46797.13;6182081;23;20135;-74
2023/01/01 08:28:58;;;;;;;9.47;1.10;;;;;;;-145.18;100.00;46803.00;6181859;23;20009;-74
2023/01/01 08:31:24;;;;;;;9.37;1.73;;;;;;;-145.18;100.00;46801.03;6182615;23;20020;-74
2023/01/01 08:33:50;;;;;;;6.53;1.13;;;;;;;-145.18;100.00;46781.50;6181643;23;20468;-75
2023/01/01 08:36:15;;;;;;;8.40;1.50;;;;;;;-145.18;100.00;46765.88;6182591;23;20009;-75
2023/01/01 08:38:42;;;;;;;8.67;1.10;;;;;;;-145.18;100.00;46750.25;6182167;23;20001;-75
2023/01/01 08:41:07;;;;;;;9.50;1.50;;;;;;;-145.18;100.00;46746.34;6182156;23;20017;-75
2023/01/01 08:43:33;;;;;;;5.77;1.13;;;;;;;-145.18;100.00;46742.44;6180440;23;20346;-75
2023/01/01 08:45:58;;;;;;;10.30;1.70;;;;;;;-145.18;100.00;46722.91;6180696;23;20487;-75
2023/01/01 08:48:24;;;;;;;5.37;1.13;;;;;;;-145.18;100.00;46719.00;6155527;23;20016;-75
2023/01/01 08:50:59;;;;;;;7.90;1.50;;;;;;;-145.18;100.00;46709.22;6182318;23;20033;-75
2023/01/01 08:53:25;;;;;;;12.27;1.50;;;;;;;-145.18;100.00;46697.50;6181826;23;20095;-75
2023/01/01 08:56:05;;;;;;;6.80;1.10;;;;;;;-145.18;100.00;46677.97;6154551;23;20222;-75
2023/01/01 08:58:32;;;;;;;10.03;1.50;;;;;;;-145.18;100.00;46695.56;6180689;23;20001;-75
2023/01/01 09:00:58;;;;;;;10.30;1.50;;;;;;;-145.18;100.00;46677.97;6181022;23;20009;-75
2023/01/01 09:03:24;;;;;;;10.70;2.10;;;;;;;-145.18;100.00;46679.94;6180710;23;20435;-75
2023/01/01 09:05:50;;;;;;;8.50;1.87;;;;;;;-145.18;100.00;46693.59;6181101;23;20457;-75
2023/01/01 09:08:15;;;;;;;9.90;1.63;;;;;;;-145.18;100.00;46679.94;6180685;23;20036;-75
2023/01/01 09:10:44;;;;;;;9.17;1.43;;;;;;;-145.18;100.00;46672.13;6181054;23;20032;-75
2023/01/01 09:13:11;;;;;;;7.50;1.53;;;;;;;-145.18;100.00;46668.22;6182255;23;20347;-75
2023/01/01 09:15:37;;;;;;;9.27;1.30;;;;;;;-145.18;100.00;46670.16;6182242;23;20040;-75
2023/01/01 09:18:03;;;;;;;12.87;2.43;;;;;;;-145.18;100.00;46662.34;6182090;23;20005;-75
2023/01/01 09:20:28;;;;;;;7.93;1.37;;;;;;;-145.18;100.00;46662.34;6182457;23;20453;-75
2023/01/01 09:22:53;;;;;;;19.47;2.60;;;;;;;-145.18;100.00;46654.53;6181817;23;20012;-75
2023/01/01 09:25:19;;;;;;;14.07;2.00;;;;;;;-145.18;100.00;46648.69;6182631;23;20390;-75
2023/01/01 09:27:44;;;;;;;9.83;1.70;;;;;;;-145.18;100.00;46642.81;6182069;23;20009;-75
2023/01/01 09:30:10;;;;;;;11.47;2.00;;;;;;;-145.18;100.00;46644.78;6155761;23;20422;-75
2023/01/01 09:32:36;;;;;;;13.73;2.03;;;;;;;-145.18;100.00;46635.00;6181870;23;20012;-75
2023/01/01 09:35:01;;;;;;;13.00;2.10;;;;;;;-145.18;100.00;46631.09;6182110;23;20012;-75
2023/01/01 09:37:27;;;;;;;14.13;2.27;;;;;;;-145.18;100.00;46660.41;6182272;23;20017;-75
2023/01/01 09:39:52;;;;;;;11.10;2.23;;;;;;;-145.18;100.00;46658.44;6181929;23;20076;-76
2023/01/01 09:42:22;;;;;;;12.17;1.83;;;;;;;-145.18;100.00;46642.81;6182568;23;20354;-75
2023/01/01 09:44:52;;;;;;;12.27;1.70;;;;;;;-145.18;100.00;46650.63;6181540;23;20446;-75
2023/01/01 09:47:31;;;;;;;11.67;1.77;;;;;;;-145.18;100.00;46640.88;6182669;23;20334;-75
2023/01/01 09:50:02;;;;;;;10.73;1.80;;;;;;;-145.18;100.00;46654.53;6182167;23;20001;-75
2023/01/01 09:52:39;;;;;;;13.90;2.23;;;;;;;-145.18;100.00;46644.78;6182287;23;20009;-75
2023/01/01 09:55:14;;;;;;;14.40;2.47;;;;;;;-145.18;100.00;46656.50;6155582;23;20009;-75
2023/01/01 09:57:39;;;;;;;15.88;2.13;;;;;;;-145.18;100.00;46660.41;6181597;23;20005;-75
2023/01/01 10:00:13;;;;;;;12.80;2.03;;;;;;;-145.18;100.00;46679.94;6155467;23;20349;-76
2023/01/01 10:02:48;;;;;;;13.57;2.30;;;;;;;-145.18;100.00;46670.16;6181701;23;20036;-75
2023/01/01 10:05:29;;;;;;;17.00;2.38;;;;;;;-145.18;100.00;46693.59;6182106;23;20057;-75
2023/01/01 10:08:04;;;;;;;13.37;1.83;;;;;;;-145.18;100.00;46697.50;6181490;23;20007;-75
2023/01/01 10:10:38;;;;;;;16.00;1.95;;;;;;;-145.18;100.00;46699.47;6181908;23;20013;-75
2023/01/01 10:13:37;;;;;;;12.37;2.47;;;;;;;-145.18;100.00;46691.66;6182035;23;20016;-75
2023/01/01 10:16:03;;;;;;;13.97;2.53;;;;;;;-145.18;100.00;46691.66;6154879;23;20009;-75
2023/01/01 10:18:33;;;;;;;13.57;1.90;;;;;;;-145.18;100.00;46670.16;6155293;23;20570;-75
2023/01/01 10:21:05;;;;;;;10.83;1.60;;;;;;;-145.18;100.00;46642.81;6182418;23;20180;-75
2023/01/01 10:23:40;;;;;;;10.03;2.17;;;;;;;-145.18;100.00;46631.09;6181105;23;20062;-75
2023/01/01 10:26:12;;;;;;;10.93;1.77;;;;;;;-145.18;100.00;46660.41;6182093;23;20013;-75
2023/01/01 10:29:00;;;;;;;11.40;2.03;;;;;;;-145.18;100.00;46656.50;6181303;23;20044;-75
2023/01/01 10:31:45;;;;;;;10.03;1.67;;;;;;;-145.18;100.00;46642.81;6182074;23;20106;-75
2023/01/01 10:34:28;;;;;;;8.50;1.60;;;;;;;-145.18;100.00;46640.88;6181959;23;20011;-75
2023/01/01 10:36:58;;;;;;;7.47;1.80;;;;;;;-145.18;100.00;46592.03;6181716;23;20012;-75
2023/01/01 10:39:24;;;;;;;10.93;2.13;;;;;;;-145.18;100.00;46595.94;6181793;23;20429;-75
2023/01/01 10:41:50;;;;;;;9.17;2.30;;;;;;;-145.18;100.00;46635.00;6181528;23;20016;-75
2023/01/01 10:44:27;;;;;;;13.97;2.87;;;;;;;-145.18;100.00;46617.41;6181762;23;20020;-75
2023/01/01 10:46:56;;;;;;;13.80;2.77;;;;;;;-145.18;100.00;46625.22;6155365;23;20009;-75
2023/01/01 10:49:22;;;;;;;7.80;2.50;;;;;;;-145.18;100.00;46640.88;6181609;23;20008;-76
2023/01/01 10:51:49;;;;;;;12.97;2.67;;;;;;;-145.18;100.00;46660.41;6182158;23;20017;-75
2023/01/01 10:54:30;;;;;;;8.40;2.07;;;;;;;-145.18;100.00;46672.13;6183434;23;20333;-75
2023/01/01 10:56:56;;;;;;;12.07;2.53;;;;;;;-145.18;100.00;46674.06;6183491;23;20161;-76
2023/01/01 10:59:33;;;;;;;11.60;1.90;;;;;;;-145.18;100.00;46679.94;6183820;23;20025;-76
2023/01/01 11:02:25;;;;;;;12.70;2.50;;;;;;;-145.18;100.00;46695.56;6183433;23;20385;-76
2023/01/01 11:05:10;;;;;;;15.40;2.70;;;;;;;-145.18;100.00;46699.47;6182800;23;20032;-76
2023/01/01 11:07:36;;;;;;;15.23;2.30;;;;;;;-145.18;100.00;46703.38;6183512;23;20088;-76
2023/01/01 11:10:05;;;;;;;12.30;2.23;;;;;;;-145.18;100.00;46697.50;6183421;23;20044;-75
2023/01/01 11:12:34;;;;;;;13.00;2.13;;;;;;;-145.18;100.00;46699.47;6183464;23;20020;-75
2023/01/01 11:15:00;;;;;;;9.97;2.70;;;;;;;-145.18;100.00;46701.41;6183232;23;20005;-76
2023/01/01 11:17:28;;;;;;;12.10;2.73;;;;;;;-145.18;100.00;46699.47;6183432;23;20084;-76
2023/01/01 11:19:56;;;;;;;17.83;3.70;;;;;;;-145.18;100.00;46703.38;6183073;23;20001;-75